Time;durP1;ratioP1;P1;durP2;ratioP2;P2;SDS_P1;SDS_P2;PMS_P1;PMS_P2;Temp;Humidity;BMP_temperature;BMP_pressure;BME280_temperature;BME280_humidity;BME280_pressure;Samples;Min_cycle;Max_cycle;Signal;HPM_P1;HPM_P2
2023/03/08 00:01:21;;;;;;;35.05;14.45;;;;;;;11.38;51.65;99514.91;4980042;28;20054;-82
2023/03/08 00:04:15;;;;;;;25.80;12.02;;;;;;;11.54;51.15;99526.63;4969763;28;20054;-81
2023/03/08 00:07:10;;;;;;;27.65;15.23;;;;;;;11.55;50.65;99515.38;4960458;29;20054;-81
2023/03/08 00:09:57;;;;;;;35.00;17.13;;;;;;;11.54;50.47;99513.81;4958548;29;20058;-82
2023/03/08 00:12:49;;;;;;;32.85;13.60;;;;;;;11.62;50.22;99517.50;4979376;28;20045;-82
2023/03/08 00:15:44;;;;;;;26.58;12.77;;;;;;;11.54;50.53;99513.00;4978284;28;20055;-82
2023/03/08 00:18:37;;;;;;;26.37;12.30;;;;;;;11.65;49.92;99511.34;4975716;28;20065;-82
2023/03/08 00:21:29;;;;;;;25.05;11.55;;;;;;;11.46;50.39;99513.97;4976952;28;20111;-81
2023/03/08 00:24:24;;;;;;;21.45;12.15;;;;;;;11.44;50.20;99499.91;4974878;28;20038;-82
2023/03/08 00:27:18;;;;;;;25.00;11.73;;;;;;;11.14;50.92;99488.66;4974324;28;20415;-81
2023/03/08 00:30:11;;;;;;;20.00;11.50;;;;;;;11.28;50.72;99490.94;4977571;28;20065;-81
2023/03/08 00:33:06;;;;;;;24.83;10.52;;;;;;;11.34;50.11;99497.72;5004029;28;20050;-81
2023/03/08 00:36:01;;;;;;;22.80;10.52;;;;;;;11.10;50.83;99502.16;4979028;28;20053;-82
2023/03/08 00:38:54;;;;;;;22.77;11.68;;;;;;;10.94;52.14;99506.78;4976887;28;20041;-82
2023/03/08 00:41:49;;;;;;;20.25;9.27;;;;;;;11.01;52.20;99503.47;4973734;28;20075;-82
2023/03/08 00:44:43;;;;;;;15.20;8.03;;;;;;;11.11;50.96;99492.88;4974259;28;20037;-82
2023/03/08 00:47:38;;;;;;;16.83;9.27;;;;;;;11.04;50.31;99491.88;4972642;28;20038;-82
2023/03/08 00:50:33;;;;;;;26.17;9.50;;;;;;;11.02;50.47;99489.50;4978128;28;20061;-81
2023/03/08 00:53:29;;;;;;;20.38;9.00;;;;;;;10.92;50.70;99490.00;5000636;28;20047;-81
2023/03/08 00:56:23;;;;;;;26.97;9.17;;;;;;;10.95;50.65;99489.31;4972035;29;20438;-82
2023/03/08 00:59:18;;;;;;;16.48;8.68;;;;;;;11.03;50.44;99485.66;4968831;29;20041;-81
2023/03/08 01:02:12;;;;;;;17.60;8.57;;;;;;;10.95;50.86;99500.22;4975673;28;20054;-81
2023/03/08 01:05:05;;;;;;;29.83;9.60;;;;;;;10.84;50.50;99490.16;4977599;28;20050;-81
2023/03/08 01:08:02;;;;;;;23.58;10.25;;;;;;;10.68;51.13;99492.81;4970676;28;20046;-81
2023/03/08 01:10:56;;;;;;;27.02;10.77;;;;;;;10.65;51.40;99497.03;4973107;28;20045;-81
2023/03/08 01:13:52;;;;;;;27.00;10.70;;;;;;;10.73;51.05;99493.38;4979266;28;20042;-81
2023/03/08 01:16:47;;;;;;;28.48;12.43;;;;;;;10.72;50.97;99493.72;4980078;28;20042;-81
2023/03/08 01:19:42;;;;;;;27.27;13.02;;;;;;;10.75;51.43;99505.84;4972719;28;20046;-81
2023/03/08 01:22:36;;;;;;;33.10;13.65;;;;;;;10.65;51.27;99504.41;4975526;28;20058;-81
2023/03/08 01:25:29;;;;;;;35.22;13.95;;;;;;;10.62;51.42;99505.06;4965670;29;20041;-81
2023/03/08 01:28:21;;;;;;;15.63;8.53;;;;;;;10.59;50.78;99497.63;4977146;28;20041;-81
2023/03/08 01:31:17;;;;;;;16.52;8.38;;;;;;;10.46;50.37;99490.66;4973799;29;20041;-81
2023/03/08 01:34:11;;;;;;;17.88;8.18;;;;;;;10.44;50.96;99499.13;4992544;28;20022;-81
2023/03/08 01:37:06;;;;;;;23.13;7.82;;;;;;;10.34;51.32;99496.09;4977282;28;20053;-81
2023/03/08 01:40:00;;;;;;;11.50;6.80;;;;;;;10.15;51.24;99488.53;4999691;28;20045;-81
2023/03/08 01:42:53;;;;;;;16.52;8.82;;;;;;;10.12;51.82;99495.44;4970305;29;20046;-81
2023/03/08 01:46:02;;;;;;;20.30;8.48;;;;;;;10.05;52.41;99491.72;4974144;28;20045;-81
2023/03/08 01:49:10;;;;;;;16.88;9.02;;;;;;;10.05;52.49;99484.38;5003999;28;20045;-81
2023/03/08 01:52:13;;;;;;;16.40;7.78;;;;;;;9.83;53.61;99492.97;4999673;28;20050;-82
2023/03/08 01:55:11;;;;;;;17.42;7.60;;;;;;;9.79;53.70;99498.31;4976170;28;20054;-82
2023/03/08 01:58:05;;;;;;;22.17;8.52;;;;;;;9.69;53.49;99495.25;4976858;28;20061;-82
2023/03/08 02:01:00;;;;;;;21.67;7.57;;;;;;;9.84;52.47;99495.34;4981711;28;20054;-81
2023/03/08 02:03:50;;;;;;;9.52;5.47;;;;;;;9.87;53.17;99497.38;5007874;28;20042;-81
2023/03/08 02:06:45;;;;;;;15.60;7.10;;;;;;;10.02;52.90;99498.63;4974448;28;20037;-81
2023/03/08 02:09:40;;;;;;;11.27;5.60;;;;;;;10.12;52.77;99511.72;4974878;28;20046;-81
2023/03/08 02:12:36;;;;;;;15.97;6.70;;;;;;;10.06;53.70;99502.22;4977489;28;20054;-81
2023/03/08 02:15:31;;;;;;;15.93;7.35;;;;;;;10.17;53.64;99505.28;4985667;28;20041;-82
2023/03/08 02:18:25;;;;;;;13.93;7.00;;;;;;;10.26;53.08;99495.09;4974312;28;20046;-81
2023/03/08 02:21:20;;;;;;;12.10;5.20;;;;;;;10.14;53.38;99495.09;4978738;28;20030;-81
2023/03/08 02:24:26;;;;;;;15.13;5.78;;;;;;;10.20;52.57;99497.28;4982586;28;20427;-81
2023/03/08 02:27:22;;;;;;;;;;;;;;;10.17;52.50;99497.94;4980761;28;20045;-81
2023/03/08 02:30:24;;;;;;;11.00;5.95;;;;;;;10.17;52.38;99497.94;4989106;28;19898;-81
2023/03/08 02:33:19;;;;;;;13.43;7.03;;;;;;;9.87;52.87;99497.38;4976940;28;20038;-81
2023/03/08 02:36:14;;;;;;;25.52;7.90;;;;;;;9.65;52.80;99494.34;4988945;28;20142;-81
2023/03/08 02:39:09;;;;;;;15.82;7.78;;;;;;;9.48;53.42;99486.41;4977531;28;20050;-81
2023/03/08 02:42:04;;;;;;;14.57;5.87;;;;;;;9.36;53.66;99484.47;4978612;28;20070;-83
2023/03/08 02:44:57;;;;;;;21.05;7.32;;;;;;;9.33;54.11;99480.50;5005455;28;20045;-81
2023/03/08 02:47:52;;;;;;;13.95;7.22;;;;;;;9.31;54.31;99479.25;4978657;28;20050;-82
2023/03/08 02:50:47;;;;;;;21.57;8.53;;;;;;;9.33;54.33;99468.88;5001984;28;20045;-82
2023/03/08 02:53:41;;;;;;;19.93;8.33;;;;;;;9.30;54.47;99470.31;4973930;28;20403;-83
2023/03/08 02:56:36;;;;;;;12.50;6.75;;;;;;;9.26;54.88;99469.41;5002984;28;20045;-82
2023/03/08 02:59:31;;;;;;;19.20;7.47;;;;;;;9.22;54.25;99463.09;4972991;29;20049;-82
2023/03/08 03:02:26;;;;;;;19.75;7.47;;;;;;;9.15;54.38;99467.47;5000794;28;20042;-82
2023/03/08 03:05:21;;;;;;;22.10;9.05;;;;;;;9.15;54.52;99479.09;4997307;28;20049;-83
2023/03/08 03:08:16;;;;;;;20.67;8.88;;;;;;;8.99;54.91;99468.09;4970876;28;20407;-82
2023/03/08 03:11:15;;;;;;;24.35;8.70;;;;;;;9.10;54.68;99475.81;4969249;28;20053;-83
2023/03/08 03:14:11;;;;;;;30.30;7.90;;;;;;;9.02;54.51;99480.22;4976289;28;20049;-82
2023/03/08 03:17:07;;;;;;;13.95;6.95;;;;;;;9.10;54.82;99476.59;4973187;28;20041;-82
2023/03/08 03:20:01;;;;;;;22.37;8.40;;;;;;;9.12;54.48;99479.78;4972386;29;20026;-82
2023/03/08 03:22:56;;;;;;;21.40;8.02;;;;;;;9.07;54.02;99490.06;4977105;28;20041;-82
2023/03/08 03:25:53;;;;;;;18.35;8.10;;;;;;;9.01;53.93;99500.31;5002464;28;20045;-83
2023/03/08 03:28:48;;;;;;;16.30;6.63;;;;;;;9.04;54.02;99498.88;4973463;29;20064;-83
2023/03/08 03:31:43;;;;;;;16.30;7.43;;;;;;;9.11;53.63;99499.09;5003824;28;20515;-82
2023/03/08 03:34:37;;;;;;;15.03;7.80;;;;;;;9.04;53.65;99507.00;4999287;28;20818;-82
2023/03/08 03:37:32;;;;;;;15.55;6.38;;;;;;;9.04;54.17;99513.19;4984627;28;20049;-82
2023/03/08 03:40:24;;;;;;;15.17;9.00;;;;;;;9.14;53.68;99515.50;4975151;28;20054;-82
2023/03/08 03:43:24;;;;;;;21.45;8.40;;;;;;;9.11;54.00;99513.44;4978644;28;20293;-82
2023/03/08 03:46:20;;;;;;;19.30;7.50;;;;;;;9.01;54.50;99517.38;5000694;28;20053;-82
2023/03/08 03:49:16;;;;;;;28.58;10.13;;;;;;;8.94;54.65;99519.03;4974289;28;20062;-82
2023/03/08 03:52:10;;;;;;;25.98;8.20;;;;;;;8.95;55.35;99512.47;4978629;28;20050;-82
2023/03/08 03:55:08;;;;;;;19.50;8.13;;;;;;;9.00;55.05;99515.78;5001032;28;20111;-82
2023/03/08 03:58:04;;;;;;;19.02;8.32;;;;;;;8.92;55.01;99521.28;4981655;28;20053;-82
2023/03/08 04:00:58;;;;;;;17.43;7.97;;;;;;;8.92;54.70;99513.97;4998354;28;20050;-82
2023/03/08 04:03:56;;;;;;;24.67;7.65;;;;;;;8.69;54.80;99522.75;4974150;28;20050;-82
2023/03/08 04:06:50;;;;;;;;;;;;;;;8.77;54.95;99530.03;4977908;28;20050;-82
2023/03/08 04:09:47;;;;;;;17.77;9.23;;;;;;;8.39;56.43;99527.47;4975151;28;19915;-83
2023/03/08 04:12:41;;;;;;;26.03;8.83;;;;;;;8.57;55.97;99532.44;4979266;28;20037;-82
2023/03/08 04:15:36;;;;;;;22.80;8.23;;;;;;;8.58;55.35;99547.53;4976273;28;20253;-82
2023/03/08 04:18:32;;;;;;;22.13;9.30;;;;;;;8.70;55.38;99543.31;4985831;28;20513;-82
2023/03/08 04:21:27;;;;;;;16.90;6.35;;;;;;;8.58;55.28;99558.38;4977941;28;20054;-82
2023/03/08 04:24:21;;;;;;;20.23;7.97;;;;;;;8.64;55.11;99561.69;4974690;29;20062;-82
2023/03/08 04:27:17;;;;;;;16.17;8.05;;;;;;;8.55;55.54;99559.06;4977918;28;20053;-82
2023/03/08 04:30:10;;;;;;;15.38;7.82;;;;;;;8.62;55.40;99545.00;4978091;28;20050;-82
2023/03/08 04:33:05;;;;;;;22.98;8.68;;;;;;;8.63;54.71;99567.47;4965645;29;20050;-82
2023/03/08 04:36:07;;;;;;;21.77;8.75;;;;;;;8.59;55.44;99570.00;4976577;28;20054;-82
2023/03/08 04:39:02;;;;;;;17.02;5.82;;;;;;;8.53;55.23;99568.66;4977242;28;20049;-82
2023/03/08 04:41:54;;;;;;;13.57;7.90;;;;;;;8.44;55.84;99565.97;4988858;28;20041;-82
2023/03/08 04:44:51;;;;;;;17.77;8.18;;;;;;;8.44;56.39;99565.19;4990768;28;20049;-82
2023/03/08 04:47:46;;;;;;;31.42;8.05;;;;;;;8.46;55.73;99577.28;4977994;28;20054;-83
2023/03/08 04:50:41;;;;;;;68.47;30.50;;;;;;;8.21;56.55;99580.13;4976589;28;20408;-82
2023/03/08 04:53:37;;;;;;;86.57;35.83;;;;;;;8.27;56.16;99574.19;4972127;28;20293;-82
2023/03/08 04:56:29;;;;;;;57.53;27.48;;;;;;;8.38;55.78;99571.94;5008621;23;20594;-81
2023/03/08 04:59:24;;;;;;;21.23;10.30;;;;;;;8.23;56.34;99584.06;5075506;28;20044;-83
2023/03/08 05:02:19;;;;;;;20.42;7.82;;;;;;;8.37;55.99;99578.47;5072193;28;20062;-82
2023/03/08 05:05:14;;;;;;;20.57;10.57;;;;;;;8.39;56.05;99574.31;5078384;28;20047;-81
2023/03/08 05:08:09;;;;;;;19.57;8.60;;;;;;;8.41;56.13;99580.19;5048415;28;20047;-80
2023/03/08 05:11:03;;;;;;;22.90;10.13;;;;;;;8.47;55.47;99581.59;5048146;28;20035;-80
2023/03/08 05:14:01;;;;;;;22.20;8.95;;;;;;;8.42;55.67;99579.06;5055849;28;20417;-82
2023/03/08 05:16:57;;;;;;;20.75;10.10;;;;;;;8.33;56.31;99574.84;5052906;28;20559;-82
2023/03/08 05:19:50;;;;;;;16.95;8.35;;;;;;;8.40;56.06;99572.38;5058820;28;20048;-84
2023/03/08 05:22:46;;;;;;;20.13;8.23;;;;;;;8.40;55.87;99575.88;5056836;28;20044;-81
2023/03/08 05:25:45;;;;;;;19.75;8.43;;;;;;;8.34;56.02;99577.19;5059117;28;20696;-82
2023/03/08 05:28:40;;;;;;;17.70;8.40;;;;;;;8.37;56.35;99578.47;5053664;28;20048;-80
2023/03/08 05:31:35;;;;;;;51.65;19.42;;;;;;;8.40;56.45;99577.81;5038630;28;20047;-82
2023/03/08 05:34:29;;;;;;;28.20;11.60;;;;;;;8.43;56.51;99574.47;5050187;28;20052;-80
2023/03/08 05:37:24;;;;;;;38.15;14.32;;;;;;;8.37;56.60;99575.75;5065301;28;20048;-82
2023/03/08 05:40:18;;;;;;;113.57;81.07;;;;;;;8.34;56.46;99581.81;5057483;28;20043;-81
2023/03/08 05:43:12;;;;;;;36.75;15.70;;;;;;;8.42;56.21;99581.78;5071623;28;20431;-81
2023/03/08 05:46:07;;;;;;;17.13;10.02;;;;;;;8.52;56.09;99567.84;5056819;28;20408;-81
2023/03/08 05:49:02;;;;;;;21.60;10.40;;;;;;;8.36;56.19;99577.69;5057364;28;20064;-82
2023/03/08 05:51:55;;;;;;;18.73;7.43;;;;;;;8.21;56.56;99580.91;5060688;28;20043;-80
2023/03/08 05:54:50;;;;;;;17.23;8.32;;;;;;;8.23;56.57;99580.59;5062578;28;20416;-81
2023/03/08 05:57:45;;;;;;;15.93;8.07;;;;;;;8.20;56.55;99595.56;5058257;28;20043;-77
2023/03/08 06:00:39;;;;;;;22.93;6.93;;;;;;;8.18;56.60;99585.06;5071997;28;20051;-77
2023/03/08 06:03:32;;;;;;;16.67;7.32;;;;;;;8.17;56.48;99588.13;5060169;28;20293;-77
2023/03/08 06:06:28;;;;;;;23.13;9.55;;;;;;;8.16;56.95;99590.03;5067531;28;20047;-80
2023/03/08 06:09:24;;;;;;;27.40;8.10;;;;;;;8.20;56.87;99583.94;5074617;28;20048;-79
2023/03/08 06:12:16;;;;;;;19.40;7.70;;;;;;;8.19;56.83;99593.97;5063780;28;20035;-79
2023/03/08 06:15:11;;;;;;;23.55;8.80;;;;;;;8.24;56.84;99598.41;5061650;28;20049;-80
2023/03/08 06:18:06;;;;;;;21.05;10.02;;;;;;;8.29;56.70;99599.03;5071155;28;20424;-79
2023/03/08 06:21:09;;;;;;;22.75;10.50;;;;;;;8.26;56.84;99607.81;5060612;28;20044;-77
2023/03/08 06:24:04;;;;;;;17.27;9.13;;;;;;;8.11;57.01;99613.78;5073255;28;20055;-77
2023/03/08 06:26:56;;;;;;;15.48;7.05;;;;;;;8.22;56.80;99617.72;5071588;28;20647;-77
2023/03/08 06:29:50;;;;;;;28.48;10.18;;;;;;;8.06;57.13;99616.66;5053186;28;20039;-76
2023/03/08 06:32:45;;;;;;;22.33;7.65;;;;;;;8.22;57.15;99617.72;5059910;28;20420;-77
2023/03/08 06:35:40;;;;;;;22.53;8.83;;;;;;;8.14;57.81;99626.66;5065622;28;20032;-78
2023/03/08 06:38:34;;;;;;;23.17;8.27;;;;;;;8.36;57.58;99631.84;5058379;28;20055;-77
2023/03/08 06:41:29;;;;;;;30.20;8.88;;;;;;;8.44;57.30;99643.75;5044067;28;20067;-77
2023/03/08 06:44:23;;;;;;;18.60;7.07;;;;;;;8.47;57.13;99646.63;5041260;28;20040;-77
2023/03/08 06:47:18;;;;;;;19.47;6.63;;;;;;;8.45;56.88;99643.44;5064535;28;20055;-77
2023/03/08 06:50:08;;;;;;;27.02;9.20;;;;;;;8.62;57.01;99642.53;5064137;28;20044;-77
2023/03/08 06:53:00;;;;;;;33.97;9.68;;;;;;;8.58;57.18;99655.16;5059119;28;20044;-78
2023/03/08 06:56:19;;;;;;;22.63;6.93;;;;;;;8.76;57.77;99663.97;5057444;28;20058;-80
2023/03/08 06:59:11;;;;;;;;;;;;;;;8.82;57.57;99670.78;5070684;28;20048;-78
2023/03/08 07:02:06;;;;;;;22.55;9.73;;;;;;;8.88;57.82;99674.91;5071832;28;19912;-80
2023/03/08 07:04:58;;;;;;;25.77;9.27;;;;;;;8.95;58.06;99688.72;5070703;28;20039;-78
2023/03/08 07:07:53;;;;;;;18.10;8.88;;;;;;;9.05;57.58;99682.91;5072996;28;20048;-80
2023/03/08 07:10:47;;;;;;;24.27;8.33;;;;;;;9.07;57.19;99699.66;5080107;28;20055;-81
2023/03/08 07:13:42;;;;;;;29.50;8.27;;;;;;;9.16;57.27;99697.66;5056677;28;20052;-79
2023/03/08 07:16:36;;;;;;;27.77;7.78;;;;;;;9.20;57.53;99685.03;5060435;28;20048;-78
2023/03/08 07:19:25;;;;;;;22.05;9.02;;;;;;;9.17;57.56;99699.25;5057450;28;20048;-79
2023/03/08 07:22:15;;;;;;;22.52;8.88;;;;;;;9.27;57.62;99693.44;5062742;28;20103;-81
2023/03/08 07:25:07;;;;;;;33.85;10.13;;;;;;;9.25;57.73;99706.53;5059257;28;20052;-78
2023/03/08 07:28:02;;;;;;;41.75;13.65;;;;;;;9.27;57.83;99719.75;5064179;28;20055;-77
2023/03/08 07:30:54;;;;;;;25.35;8.80;;;;;;;9.30;58.13;99719.88;5085780;28;20696;-79
2023/03/08 07:33:49;;;;;;;34.28;9.63;;;;;;;9.43;57.37;99712.63;5070576;28;20052;-77
2023/03/08 07:36:39;;;;;;;23.00;10.57;;;;;;;9.43;56.89;99716.13;5063990;28;20039;-78
2023/03/08 07:39:33;;;;;;;19.83;9.45;;;;;;;9.60;56.87;99722.53;5071654;28;20114;-80
2023/03/08 07:42:26;;;;;;;19.00;8.85;;;;;;;9.76;56.63;99715.34;5068469;28;20063;-77
2023/03/08 07:45:22;;;;;;;47.22;11.30;;;;;;;9.90;56.64;99715.06;5059258;28;20051;-77
2023/03/08 07:48:16;;;;;;;13.90;7.43;;;;;;;10.07;56.36;99710.22;5062327;28;20047;-79
2023/03/08 07:51:12;;;;;;;18.97;7.83;;;;;;;10.15;56.52;99703.94;5077277;28;20052;-77
2023/03/08 07:54:06;;;;;;;22.80;9.07;;;;;;;10.34;56.69;99708.84;5078947;28;20036;-78
2023/03/08 07:57:00;;;;;;;21.30;8.35;;;;;;;10.37;57.19;99712.81;5069282;28;20432;-79
2023/03/08 07:59:55;;;;;;;17.77;7.03;;;;;;;10.29;57.17;99709.88;5070683;28;20044;-79
2023/03/08 08:02:50;;;;;;;14.50;7.13;;;;;;;10.50;56.59;99717.94;5062469;28;20048;-79
2023/03/08 08:05:45;;;;;;;20.17;9.67;;;;;;;10.52;56.59;99723.00;5062216;28;20294;-77
2023/03/08 08:08:39;;;;;;;14.67;7.87;;;;;;;10.53;56.46;99725.41;5071175;28;20412;-80
2023/03/08 08:11:34;;;;;;;18.73;6.93;;;;;;;10.55;56.27;99738.66;5090680;28;20801;-77
2023/03/08 08:14:28;;;;;;;22.67;11.20;;;;;;;10.53;56.88;99740.91;5083481;28;20050;-78
2023/03/08 08:17:22;;;;;;;28.90;9.77;;;;;;;10.65;57.11;99752.59;5073876;28;20044;-81
2023/03/08 08:20:16;;;;;;;19.55;9.15;;;;;;;10.81;56.83;99760.09;5066317;28;20039;-81
2023/03/08 08:23:11;;;;;;;14.45;7.07;;;;;;;10.73;57.07;99765.28;5064988;28;20064;-82
2023/03/08 08:26:09;;;;;;;21.30;9.82;;;;;;;10.83;57.06;99772.19;5060108;28;20051;-81
2023/03/08 08:29:03;;;;;;;19.52;9.93;;;;;;;11.21;56.02;99773.78;5067219;28;20044;-80
2023/03/08 08:31:58;;;;;;;22.25;10.13;;;;;;;11.36;55.64;99779.31;5065546;28;20051;-81
2023/03/08 08:34:52;;;;;;;23.02;9.15;;;;;;;11.34;55.66;99778.06;5074546;28;20036;-81
2023/03/08 08:37:47;;;;;;;19.92;9.70;;;;;;;11.37;56.23;99777.38;5093721;28;20046;-80
2023/03/08 08:40:41;;;;;;;24.80;10.68;;;;;;;11.36;56.39;99770.34;5101320;28;20150;-79
2023/03/08 08:43:37;;;;;;;18.30;10.57;;;;;;;11.38;56.51;99776.22;5101012;28;20043;-79
2023/03/08 08:46:32;;;;;;;16.27;10.18;;;;;;;11.57;56.50;99770.97;5096767;28;20051;-80
2023/03/08 08:49:27;;;;;;;21.50;11.52;;;;;;;11.77;55.66;99771.97;5100118;28;20043;-80
2023/03/08 08:52:21;;;;;;;26.83;10.40;;;;;;;11.88;54.91;99771.13;5100516;28;20047;-80
2023/03/08 08:55:16;;;;;;;25.60;10.75;;;;;;;11.84;55.23;99769.44;5078810;28;20040;-81
2023/03/08 08:58:10;;;;;;;24.88;11.63;;;;;;;11.91;55.21;99762.25;5087299;28;20625;-82
2023/03/08 09:01:05;;;;;;;30.03;11.90;;;;;;;11.87;55.28;99753.19;5074795;28;20047;-78
2023/03/08 09:04:00;;;;;;;18.53;9.73;;;;;;;12.00;54.92;99751.19;5056913;28;20048;-80
2023/03/08 09:06:52;;;;;;;32.00;13.25;;;;;;;12.23;54.85;99760.41;5061506;28;20289;-79
2023/03/08 09:09:46;;;;;;;19.45;12.65;;;;;;;12.33;53.87;99754.44;5059548;28;20044;-79
2023/03/08 09:12:41;;;;;;;31.43;13.23;;;;;;;12.43;53.53;99747.69;5058147;28;20405;-79
2023/03/08 09:15:35;;;;;;;21.13;12.47;;;;;;;12.36;53.65;99753.72;5068396;28;20067;-80
2023/03/08 09:18:27;;;;;;;30.55;11.27;;;;;;;12.38;53.85;99772.47;5062151;28;20290;-80
2023/03/08 09:21:22;;;;;;;18.08;11.38;;;;;;;12.49;53.54;99778.19;5066651;28;20040;-80
2023/03/08 09:24:16;;;;;;;18.83;12.05;;;;;;;12.57;52.87;99782.69;5058948;28;20056;-79
2023/03/08 09:27:11;;;;;;;21.80;11.43;;;;;;;12.68;52.39;99786.47;5052456;28;20405;-80
2023/03/08 09:30:06;;;;;;;28.97;11.57;;;;;;;12.86;52.64;99780.31;5055843;28;20410;-79
2023/03/08 09:33:00;;;;;;;17.70;10.23;;;;;;;12.68;52.37;99784.53;5059034;28;20044;-78
2023/03/08 09:36:03;;;;;;;27.52;12.95;;;;;;;12.69;52.36;99788.88;5057545;28;20052;-79
2023/03/08 09:38:58;;;;;;;24.75;13.27;;;;;;;12.80;52.00;99776.25;5078205;28;20047;-79
2023/03/08 09:42:04;;;;;;;30.80;15.25;;;;;;;12.82;52.74;99782.16;5075388;28;20048;-79
2023/03/08 09:45:12;;;;;;;25.20;13.75;;;;;;;13.00;52.21;99790.00;5070597;28;20047;-80
2023/03/08 09:48:08;;;;;;;24.38;13.07;;;;;;;13.05;52.21;99801.44;5072174;28;20168;-78
2023/03/08 09:51:04;;;;;;;30.80;15.45;;;;;;;13.07;51.59;99804.59;5083729;28;20044;-81
2023/03/08 09:54:04;;;;;;;31.23;15.05;;;;;;;13.06;51.38;99808.47;5080902;28;20051;-81
2023/03/08 09:56:58;;;;;;;26.70;14.40;;;;;;;13.02;51.71;99801.34;5061006;28;20414;-83
2023/03/08 10:00:02;;;;;;;25.40;13.30;;;;;;;13.02;50.96;99791.22;5070688;28;20043;-81
2023/03/08 10:03:32;;;;;;;24.63;13.60;;;;;;;13.15;50.90;99783.75;5065182;28;20047;-82
2023/03/08 10:07:04;;;;;;;27.17;15.93;;;;;;;13.21;51.63;99787.78;5073530;28;20523;-81
2023/03/08 10:10:15;;;;;;;39.55;16.15;;;;;;;13.34;52.14;99794.72;5077403;28;20051;-82
2023/03/08 10:13:32;;;;;;;26.08;14.65;;;;;;;13.33;51.58;99792.34;5082938;28;20043;-81
2023/03/08 10:16:22;;;;;;;;;;;;;;;13.26;52.05;99792.97;5069092;28;20036;-80
2023/03/08 10:19:29;;;;;;;32.03;15.85;;;;;;;13.34;52.87;99800.19;5072976;28;20376;-82
2023/03/08 10:22:33;;;;;;;32.53;16.52;;;;;;;13.43;52.59;99806.22;5077550;28;20048;-82
2023/03/08 10:25:32;;;;;;;31.30;15.98;;;;;;;13.52;52.12;99793.16;5083569;28;20048;-81
2023/03/08 10:28:27;;;;;;;34.88;15.60;;;;;;;13.43;52.04;99795.31;5070089;28;20063;-81
2023/03/08 10:31:45;;;;;;;29.57;15.63;;;;;;;13.57;52.15;99787.41;5064112;28;20406;-81
2023/03/08 10:34:40;;;;;;;34.35;16.00;;;;;;;13.69;51.56;99787.28;5068340;28;20036;-83
2023/03/08 10:37:38;;;;;;;30.73;17.25;;;;;;;13.81;52.54;99789.09;5072933;28;20040;-82
2023/03/08 10:40:32;;;;;;;26.83;14.10;;;;;;;13.87;51.84;99776.72;5071525;28;20040;-82
2023/03/08 10:43:33;;;;;;;34.83;13.32;;;;;;;13.88;50.81;99772.84;5076961;28;20060;-82
2023/03/08 10:46:29;;;;;;;25.67;14.00;;;;;;;13.78;50.68;99767.94;5074114;28;20052;-81
2023/03/08 10:49:24;;;;;;;17.48;10.57;;;;;;;13.84;50.62;99768.47;5069535;28;20541;-81
2023/03/08 10:52:26;;;;;;;24.00;14.15;;;;;;;13.84;50.86;99769.25;5066863;28;20056;-80
2023/03/08 10:55:28;;;;;;;27.58;13.57;;;;;;;13.87;51.09;99765.00;5074701;28;20044;-79
2023/03/08 10:58:41;;;;;;;24.25;12.63;;;;;;;14.01;50.64;99759.81;5071363;28;20047;-80
2023/03/08 11:01:48;;;;;;;26.40;14.75;;;;;;;14.03;50.39;99755.56;5061254;28;20048;-79
2023/03/08 11:04:40;;;;;;;28.42;13.55;;;;;;;14.10;50.27;99747.50;5073312;28;20060;-81
2023/03/08 11:07:36;;;;;;;27.10;13.70;;;;;;;14.29;49.91;99748.63;5079137;28;20055;-80
2023/03/08 11:10:28;;;;;;;33.17;15.48;;;;;;;14.34;49.79;99754.56;5082261;28;20048;-79
2023/03/08 11:13:30;;;;;;;31.25;14.68;;;;;;;14.36;49.58;99749.56;5076040;28;20047;-78
2023/03/08 11:16:28;;;;;;;31.85;12.15;;;;;;;14.44;48.73;99740.31;5080070;28;20052;-80
2023/03/08 11:19:30;;;;;;;24.67;11.82;;;;;;;14.55;48.37;99735.84;5074646;28;20496;-78
2023/03/08 11:22:55;;;;;;;19.88;11.43;;;;;;;14.42;48.37;99715.31;5065941;28;20039;-79
2023/03/08 11:26:00;;;;;;;19.00;10.93;;;;;;;14.44;49.07;99695.78;5074279;28;20047;-79
2023/03/08 11:29:08;;;;;;;23.33;11.55;;;;;;;14.40;49.68;99701.19;5076638;28;20047;-79
2023/03/08 11:32:10;;;;;;;18.77;11.95;;;;;;;14.62;49.04;99685.13;5064770;28;20048;-77
2023/03/08 11:35:21;;;;;;;24.48;13.90;;;;;;;14.70;49.11;99708.69;5066395;28;20041;-77
2023/03/08 11:38:21;;;;;;;27.45;13.75;;;;;;;14.81;49.35;99720.59;5054865;28;20072;-79
2023/03/08 11:41:44;;;;;;;23.05;10.65;;;;;;;14.97;47.82;99713.03;5058296;28;20044;-78
2023/03/08 11:45:13;;;;;;;19.83;10.05;;;;;;;15.05;47.49;99697.47;5054794;28;20071;-77
2023/03/08 11:48:38;;;;;;;21.67;10.65;;;;;;;15.08;47.98;99686.59;5064834;28;20059;-78
2023/03/08 11:51:42;;;;;;;29.13;11.02;;;;;;;15.20;47.91;99683.63;5088888;22;20064;-78
2023/03/08 11:54:45;;;;;;;20.38;8.85;;;;;;;15.35;47.22;99695.53;5036052;28;20398;-79
2023/03/08 11:57:41;;;;;;;17.75;10.60;;;;;;;15.33;47.14;99712.38;5038333;28;20049;-77
2023/03/08 12:00:38;;;;;;;22.30;11.25;;;;;;;15.44;47.23;99719.94;5035940;28;20116;-78
2023/03/08 12:03:35;;;;;;;40.75;10.38;;;;;;;15.57;47.33;99724.84;5016622;28;20434;-78
2023/03/08 12:06:32;;;;;;;19.95;10.95;;;;;;;15.76;46.31;99721.94;5013645;28;20049;-80
2023/03/08 12:09:34;;;;;;;22.77;12.25;;;;;;;19.53;39.35;99734.22;5013732;28;20069;-81
2023/03/08 12:12:48;;;;;;;22.00;11.35;;;;;;;27.62;24.91;99725.38;5006755;28;20050;-82
2023/03/08 12:15:52;;;;;;;24.58;11.90;;;;;;;29.50;22.11;99724.16;5012774;28;20049;-81
2023/03/08 12:19:06;;;;;;;20.73;9.32;;;;;;;27.75;23.27;99717.69;5016743;28;20048;-81
2023/03/08 12:22:14;;;;;;;13.95;8.52;;;;;;;28.33;22.70;99734.66;5007449;28;20057;-81
2023/03/08 12:25:29;;;;;;;21.77;8.63;;;;;;;25.03;26.37;99747.34;5016382;28;20057;-81
2023/03/08 12:28:25;;;;;;;16.20;7.68;;;;;;;23.14;30.06;99749.03;5005703;28;20049;-81
2023/03/08 12:31:31;;;;;;;17.50;8.73;;;;;;;21.29;32.32;99733.41;5012471;28;20053;-80
2023/03/08 12:34:37;;;;;;;30.23;8.23;;;;;;;27.62;23.76;99739.34;5014167;28;20045;-81
2023/03/08 12:37:32;;;;;;;15.30;9.05;;;;;;;31.49;18.96;99737.72;5008233;28;20045;-80
2023/03/08 12:40:38;;;;;;;14.00;6.93;;;;;;;26.23;23.94;99720.88;5008460;28;20092;-83
2023/03/08 12:43:32;;;;;;;;;;;;;;;27.77;23.15;99728.44;5014379;28;20049;-81
2023/03/08 12:46:26;;;;;;;15.63;7.35;;;;;;;31.03;19.75;99726.09;5022154;28;20298;-81
2023/03/08 12:49:33;;;;;;;11.88;5.85;;;;;;;32.93;17.84;99733.69;5023811;28;20045;-82
2023/03/08 12:52:32;;;;;;;13.32;6.47;;;;;;;34.18;15.94;99724.03;5007279;28;20049;-82
2023/03/08 12:55:34;;;;;;;12.93;7.03;;;;;;;32.34;18.32;99716.22;5011960;28;20045;-81
2023/03/08 12:58:30;;;;;;;11.25;6.15;;;;;;;31.35;18.58;99688.66;5014528;28;20419;-81
2023/03/08 13:01:41;;;;;;;13.63;5.93;;;;;;;32.75;18.22;99680.47;5010317;28;20082;-81
2023/03/08 13:04:38;;;;;;;12.35;5.78;;;;;;;30.56;19.27;99679.88;5009940;28;20053;-81
2023/03/08 13:07:38;;;;;;;10.63;5.65;;;;;;;32.94;18.03;99678.13;5002438;28;20053;-82
2023/03/08 13:10:32;;;;;;;15.85;6.47;;;;;;;33.86;16.18;99670.41;5017748;28;20060;-81
2023/03/08 13:13:52;;;;;;;13.63;6.45;;;;;;;31.87;18.04;99675.03;5006264;28;20053;-82
2023/03/08 13:16:46;;;;;;;27.48;7.07;;;;;;;34.74;15.69;99660.97;5013245;28;20045;-82
2023/03/08 13:19:48;;;;;;;12.02;5.80;;;;;;;36.12;14.49;99678.72;5012901;28;20049;-81
2023/03/08 13:23:13;;;;;;;10.30;5.18;;;;;;;35.09;15.11;99660.59;5021718;28;20061;-82
2023/03/08 13:26:21;;;;;;;17.55;8.35;;;;;;;25.90;24.05;99658.22;5013991;28;20044;-85
2023/03/08 13:29:20;;;;;;;13.82;5.70;;;;;;;23.79;26.96;99653.00;5018105;28;20060;-83
2023/03/08 13:32:20;;;;;;;23.13;8.52;;;;;;;23.82;27.05;99637.47;5010683;28;20045;-84
2023/03/08 13:35:18;;;;;;;27.50;7.38;;;;;;;25.95;24.49;99632.59;5001273;28;20412;-86
2023/03/08 13:38:20;;;;;;;18.63;7.47;;;;;;;26.98;23.18;99629.94;5007107;28;20053;-84
2023/03/08 13:41:09;;;;;;;12.07;6.05;;;;;;;25.17;25.21;99629.31;5000684;28;20057;-84
2023/03/08 13:44:24;;;;;;;11.93;4.63;;;;;;;26.92;23.41;99634.53;5012499;28;20061;-84
2023/03/08 13:47:28;;;;;;;8.53;4.70;;;;;;;25.48;25.02;99622.03;5000472;28;20061;-88